Time;durP1;ratioP1;P1;durP2;ratioP2;P2;SDS_P1;SDS_P2;PMS_P1;PMS_P2;Temp;Humidity;BMP_temperature;BMP_pressure;BME280_temperature;BME280_humidity;BME280_pressure;Samples;Min_cycle;Max_cycle;Signal;HPM_P1;HPM_P2
2021/06/23 00:02:07;;;;;;;;;42.00;35.25;;;;;;;;5071486;27;45652;-77
2021/06/23 00:04:32;;;;;;;;;44.33;36.00;;;;;;;;5074906;27;45425;-77
2021/06/23 00:06:57;;;;;;;;;37.67;32.67;;;;;;;;5082887;27;45389;-76
2021/06/23 00:09:23;;;;;;;;;33.67;30.33;;;;;;;;5083763;27;45369;-77
2021/06/23 00:11:52;;;;;;;;;34.50;28.25;;;;;;;;5075672;27;45652;-77
2021/06/23 00:14:17;;;;;;;;;44.25;36.00;;;;;;;;5076518;27;45422;-77
2021/06/23 00:16:43;;;;;;;;;40.75;33.25;;;;;;;;5071636;27;45508;-77
2021/06/23 00:19:08;;;;;;;;;36.50;32.00;;;;;;;;5073377;27;45463;-77
2021/06/23 00:21:33;;;;;;;;;43.00;32.33;;;;;;;;5070506;27;45822;-77
2021/06/23 00:23:59;;;;;;;;;36.33;32.67;;;;;;;;5073099;27;45328;-76
2021/06/23 00:26:24;;;;;;;;;33.50;28.75;;;;;;;;5080641;27;45550;-77
2021/06/23 00:28:49;;;;;;;;;37.75;31.50;;;;;;;;5072988;27;46247;-79
2021/06/23 00:31:15;;;;;;;;;40.50;32.50;;;;;;;;5074916;27;45359;-79
2021/06/23 00:33:41;;;;;;;;;32.67;27.33;;;;;;;;5077634;27;47049;-77
2021/06/23 00:36:06;;;;;;;;;33.00;28.25;;;;;;;;5075871;27;45434;-77
2021/06/23 00:38:31;;;;;;;;;36.75;28.50;;;;;;;;5080360;27;46610;-76
2021/06/23 00:40:57;;;;;;;;;37.00;32.50;;;;;;;;5075913;27;45762;-76
2021/06/23 00:43:23;;;;;;;;;31.50;26.25;;;;;;;;5074460;27;45481;-77
2021/06/23 00:45:48;;;;;;;;;28.75;24.50;;;;;;;;5074688;27;45586;-77
2021/06/23 00:48:17;;;;;;;;;37.25;30.00;;;;;;;;5074969;27;45793;-77
2021/06/23 00:50:42;;;;;;;;;32.00;26.50;;;;;;;;5075093;27;45413;-78
2021/06/23 00:53:09;;;;;;;;;34.00;27.00;;;;;;;;5075515;27;46669;-76
2021/06/23 00:55:34;;;;;;;;;32.00;28.50;;;;;;;;5083901;27;45448;-76
2021/06/23 00:58:01;;;;;;;;;35.75;28.25;;;;;;;;5074135;27;46058;-76
2021/06/23 01:00:29;;;;;;;;;34.25;27.25;;;;;;;;5077999;27;46091;-77
2021/06/23 01:02:54;;;;;;;;;32.50;27.25;;;;;;;;5078193;27;45446;-76
2021/06/23 01:05:20;;;;;;;;;35.00;26.25;;;;;;;;5071435;27;45385;-78
2021/06/23 01:07:45;;;;;;;;;32.00;24.75;;;;;;;;5073313;27;47389;-80
2021/06/23 01:10:11;;;;;;;;;26.50;24.25;;;;;;;;5077731;27;45513;-79
2021/06/23 01:12:55;;;;;;;;;35.00;29.75;;;;;;;;5083887;27;45274;-77
2021/06/23 01:15:20;;;;;;;;;30.25;28.50;;;;;;;;5084661;27;45744;-77
2021/06/23 01:17:46;;;;;;;;;33.25;25.75;;;;;;;;5072035;27;46169;-77
2021/06/23 01:20:12;;;;;;;;;36.25;31.50;;;;;;;;5073308;28;45574;-77
2021/06/23 01:22:38;;;;;;;;;32.75;26.75;;;;;;;;5063378;27;45495;-76
2021/06/23 01:25:05;;;;;;;;;37.50;31.75;;;;;;;;5073799;27;45399;-78
2021/06/23 01:27:31;;;;;;;;;36.25;30.25;;;;;;;;5080278;27;46524;-77
2021/06/23 01:29:56;;;;;;;;;38.50;30.75;;;;;;;;5078256;27;45749;-77
2021/06/23 01:32:22;;;;;;;;;32.50;25.75;;;;;;;;5073704;27;45445;-76
2021/06/23 01:34:47;;;;;;;;;35.00;30.25;;;;;;;;5073807;28;45599;-76
2021/06/23 01:37:12;;;;;;;;;35.67;32.33;;;;;;;;5072569;27;46398;-77
2021/06/23 01:39:37;;;;;;;;;35.67;33.33;;;;;;;;5074068;27;45496;-77
2021/06/23 01:42:03;;;;;;;;;39.00;32.00;;;;;;;;5072577;27;45503;-77
2021/06/23 01:44:28;;;;;;;;;33.00;26.00;;;;;;;;5073628;28;46018;-77
2021/06/23 01:46:54;;;;;;;;;35.33;30.00;;;;;;;;5074382;27;46041;-77
2021/06/23 01:49:21;;;;;;;;;34.75;31.00;;;;;;;;5072083;27;45548;-77
2021/06/23 01:51:46;;;;;;;;;41.50;31.00;;;;;;;;5072460;27;45579;-77
2021/06/23 01:54:11;;;;;;;;;34.67;28.67;;;;;;;;5074841;27;45678;-76
2021/06/23 01:56:37;;;;;;;;;34.00;29.00;;;;;;;;5075608;27;46745;-76
2021/06/23 01:59:02;;;;;;;;;32.67;29.00;;;;;;;;5079188;27;45372;-76
2021/06/23 02:01:39;;;;;;;;;35.67;32.67;;;;;;;;5075259;27;45755;-77
2021/06/23 02:04:06;;;;;;;;;39.75;33.50;;;;;;;;5073585;27;45303;-76
2021/06/23 02:06:49;;;;;;;;;32.25;28.25;;;;;;;;5074597;27;46715;-77
2021/06/23 02:09:29;;;;;;;;;36.00;31.50;;;;;;;;5071001;27;45900;-76
2021/06/23 02:12:15;;;;;;;;;34.00;31.75;;;;;;;;5073540;27;45551;-77
2021/06/23 02:14:41;;;;;;;;;36.25;28.25;;;;;;;;5062118;28;45442;-77
2021/06/23 02:17:08;;;;;;;;;39.25;32.50;;;;;;;;5070626;27;45588;-76
2021/06/23 02:19:37;;;;;;;;;35.00;29.50;;;;;;;;5071273;28;45948;-78
2021/06/23 02:22:03;;;;;;;;;35.75;31.25;;;;;;;;5072481;27;45560;-77
2021/06/23 02:24:29;;;;;;;;;46.50;33.75;;;;;;;;5083411;27;45543;-76
2021/06/23 02:26:55;;;;;;;;;35.75;31.50;;;;;;;;5073097;27;45410;-76
2021/06/23 02:29:21;;;;;;;;;40.00;33.50;;;;;;;;5074806;27;45569;-77
2021/06/23 02:31:49;;;;;;;;;39.25;31.75;;;;;;;;5071960;27;45488;-77
2021/06/23 02:34:15;;;;;;;;;42.75;33.25;;;;;;;;5072404;27;46732;-77
2021/06/23 02:36:41;;;;;;;;;38.50;29.25;;;;;;;;5079351;27;45408;-76
2021/06/23 02:39:06;;;;;;;;;37.75;30.50;;;;;;;;5071248;27;45486;-77
2021/06/23 02:41:32;;;;;;;;;39.50;31.00;;;;;;;;5074317;27;45616;-77
2021/06/23 02:43:58;;;;;;;;;38.25;34.25;;;;;;;;5072954;27;45475;-76
2021/06/23 02:46:23;;;;;;;;;38.00;25.75;;;;;;;;5072149;27;46266;-76
2021/06/23 02:48:50;;;;;;;;;32.00;28.25;;;;;;;;5071904;27;45561;-76
2021/06/23 02:51:20;;;;;;;;;37.75;32.00;;;;;;;;5074433;27;45468;-76
2021/06/23 02:53:47;;;;;;;;;31.75;23.25;;;;;;;;5072618;27;45374;-76
2021/06/23 02:56:13;;;;;;;;;35.25;31.25;;;;;;;;5071599;27;47098;-77
2021/06/23 02:58:40;;;;;;;;;33.75;30.25;;;;;;;;5077948;27;46077;-76
2021/06/23 03:01:06;;;;;;;;;32.50;27.00;;;;;;;;5071105;27;45409;-77
2021/06/23 03:03:31;;;;;;;;;34.67;27.67;;;;;;;;5078197;27;45464;-76
2021/06/23 03:06:00;;;;;;;;;24.67;22.67;;;;;;;;5076899;27;45335;-76
2021/06/23 03:08:25;;;;;;;;;24.00;22.00;;;;;;;;5071206;27;45292;-76
2021/06/23 03:10:50;;;;;;;;;27.00;22.75;;;;;;;;5071172;27;45437;-76
2021/06/23 03:13:16;;;;;;;;;31.75;23.50;;;;;;;;5072450;27;45430;-77
2021/06/23 03:15:41;;;;;;;;;36.00;28.33;;;;;;;;5077131;27;45586;-76
2021/06/23 03:18:06;;;;;;;;;27.00;23.67;;;;;;;;5073879;28;45517;-77
2021/06/23 03:20:32;;;;;;;;;25.75;21.00;;;;;;;;5072014;27;45436;-77
2021/06/23 03:22:57;;;;;;;;;29.00;22.00;;;;;;;;5071801;28;46043;-77
2021/06/23 03:25:22;;;;;;;;;26.25;24.50;;;;;;;;5070981;27;45949;-77
2021/06/23 03:27:52;;;;;;;;;26.25;22.00;;;;;;;;5082499;27;45326;-76
2021/06/23 03:30:17;;;;;;;;;28.25;23.00;;;;;;;;5074464;27;45326;-76
2021/06/23 03:32:44;;;;;;;;;31.00;22.25;;;;;;;;5077249;27;45512;-77
2021/06/23 03:35:10;;;;;;;;;23.25;21.50;;;;;;;;5071270;27;45515;-77
2021/06/23 03:37:35;;;;;;;;;26.00;19.75;;;;;;;;5071007;27;45579;-76
2021/06/23 03:40:00;;;;;;;;;28.00;23.00;;;;;;;;5072051;27;45398;-76
2021/06/23 03:42:25;;;;;;;;;28.33;22.33;;;;;;;;5073045;27;45373;-76
2021/06/23 03:44:50;;;;;;;;;29.67;22.67;;;;;;;;5074580;27;47060;-77
2021/06/23 03:47:16;;;;;;;;;35.67;27.00;;;;;;;;5071398;27;45355;-77
2021/06/23 03:49:41;;;;;;;;;27.75;22.00;;;;;;;;5071494;27;45647;-76
2021/06/23 03:52:06;;;;;;;;;31.00;25.00;;;;;;;;5074855;27;45510;-76
2021/06/23 03:54:32;;;;;;;;;28.33;22.67;;;;;;;;5076830;27;46143;-77
2021/06/23 03:56:57;;;;;;;;;31.50;25.00;;;;;;;;5072949;27;45556;-80
2021/06/23 03:59:23;;;;;;;;;35.00;30.00;;;;;;;;5071543;27;45442;-76
2021/06/23 04:01:48;;;;;;;;;32.75;26.25;;;;;;;;5075644;27;45529;-76
2021/06/23 04:04:13;;;;;;;;;25.67;22.33;;;;;;;;5072635;27;45990;-77
2021/06/23 04:06:38;;;;;;;;;27.67;25.00;;;;;;;;5070898;27;45367;-76
2021/06/23 04:09:04;;;;;;;;;26.67;21.67;;;;;;;;5078718;27;45431;-76
2021/06/23 04:11:29;;;;;;;;;30.00;25.00;;;;;;;;5074282;27;45505;-77
2021/06/23 04:13:54;;;;;;;;;31.00;26.00;;;;;;;;5070374;27;46116;-75
2021/06/23 04:16:19;;;;;;;;;26.67;24.33;;;;;;;;5076246;27;45497;-77
2021/06/23 04:18:44;;;;;;;;;30.33;23.33;;;;;;;;5069648;27;45455;-77
2021/06/23 04:21:10;;;;;;;;;31.33;26.00;;;;;;;;5070545;28;45533;-77
2021/06/23 04:23:35;;;;;;;;;33.00;27.75;;;;;;;;5068664;28;48587;-76
2021/06/23 04:26:01;;;;;;;;;32.00;27.75;;;;;;;;5071400;28;45410;-77
2021/06/23 04:28:26;;;;;;;;;25.75;22.50;;;;;;;;5069036;27;45465;-76
2021/06/23 04:30:52;;;;;;;;;35.25;29.75;;;;;;;;5073669;27;45530;-76
2021/06/23 04:33:17;;;;;;;;;33.75;23.00;;;;;;;;5071389;27;45783;-77
2021/06/23 04:35:42;;;;;;;;;27.50;24.50;;;;;;;;5072582;27;45444;-76
2021/06/23 04:38:08;;;;;;;;;28.00;25.25;;;;;;;;5070807;27;45515;-77
2021/06/23 04:40:33;;;;;;;;;35.50;26.25;;;;;;;;5080011;27;45694;-79
2021/06/23 04:42:58;;;;;;;;;33.00;23.33;;;;;;;;5074057;27;45416;-76
2021/06/23 04:45:23;;;;;;;;;27.33;23.67;;;;;;;;5073463;27;45221;-77
2021/06/23 04:47:49;;;;;;;;;34.00;26.50;;;;;;;;5076261;27;45438;-76
2021/06/23 04:50:14;;;;;;;;;29.50;26.50;;;;;;;;5073410;27;45712;-80
2021/06/23 04:52:39;;;;;;;;;25.75;23.50;;;;;;;;5070311;27;45422;-77
2021/06/23 04:55:06;;;;;;;;;28.25;22.50;;;;;;;;5073306;27;45480;-77
2021/06/23 04:57:31;;;;;;;;;26.00;21.50;;;;;;;;5076724;27;45437;-77
2021/06/23 04:59:56;;;;;;;;;26.33;25.67;;;;;;;;5077634;27;45444;-76
2021/06/23 05:02:21;;;;;;;;;24.67;22.33;;;;;;;;5074986;27;45377;-76
2021/06/23 05:04:48;;;;;;;;;29.75;26.75;;;;;;;;5073100;27;45525;-77
2021/06/23 05:07:13;;;;;;;;;33.00;23.50;;;;;;;;5071818;27;45401;-77
2021/06/23 05:09:39;;;;;;;;;26.67;23.67;;;;;;;;5086526;27;45426;-77
2021/06/23 05:12:05;;;;;;;;;24.75;21.00;;;;;;;;5074551;27;45389;-77
2021/06/23 05:14:30;;;;;;;;;22.75;19.50;;;;;;;;5074180;27;45389;-80
2021/06/23 05:16:56;;;;;;;;;25.25;23.75;;;;;;;;5072689;27;45358;-78
2021/06/23 05:19:22;;;;;;;;;30.75;23.50;;;;;;;;5073043;27;45351;-77
2021/06/23 05:21:47;;;;;;;;;32.50;25.00;;;;;;;;5072755;27;48254;-77
2021/06/23 05:24:12;;;;;;;;;25.75;24.25;;;;;;;;5073734;27;45861;-76
2021/06/23 05:26:38;;;;;;;;;27.75;21.25;;;;;;;;5074941;27;45407;-77
2021/06/23 05:29:04;;;;;;;;;26.25;19.25;;;;;;;;5072208;28;45489;-76
2021/06/23 05:31:30;;;;;;;;;32.00;25.00;;;;;;;;5073285;27;45548;-77
2021/06/23 05:33:55;;;;;;;;;25.50;21.25;;;;;;;;5077129;27;48720;-76
2021/06/23 05:36:20;;;;;;;;;24.00;20.25;;;;;;;;5076283;27;45483;-76
2021/06/23 05:38:46;;;;;;;;;22.67;22.67;;;;;;;;5077660;27;45520;-76
2021/06/23 05:41:11;;;;;;;;;27.25;24.75;;;;;;;;5079201;27;48234;-76
2021/06/23 05:43:36;;;;;;;;;32.67;24.33;;;;;;;;5023547;27;47026;-76
2021/06/23 05:46:01;;;;;;;;;23.00;19.00;;;;;;;;5074796;27;45920;-76
2021/06/23 05:48:27;;;;;;;;;25.00;22.67;;;;;;;;5076743;27;45507;-76
2021/06/23 05:50:52;;;;;;;;;26.67;21.33;;;;;;;;5078551;27;46155;-79
2021/06/23 05:53:17;;;;;;;;;29.50;24.75;;;;;;;;5076187;27;45455;-76
2021/06/23 05:55:42;;;;;;;;;31.33;26.00;;;;;;;;5079841;27;45518;-77
2021/06/23 05:58:08;;;;;;;;;27.00;22.50;;;;;;;;5073170;27;45536;-78
2021/06/23 06:00:35;;;;;;;;;34.50;25.50;;;;;;;;5078861;27;45901;-78
2021/06/23 06:03:01;;;;;;;;;38.50;28.75;;;;;;;;5073386;27;45983;-76
2021/06/23 06:05:26;;;;;;;;;32.00;25.33;;;;;;;;5073421;27;45506;-76
2021/06/23 06:07:51;;;;;;;;;33.00;26.67;;;;;;;;5071787;28;45364;-77
2021/06/23 06:10:16;;;;;;;;;28.00;23.25;;;;;;;;5074658;27;45582;-77
2021/06/23 06:12:42;;;;;;;;;24.75;19.75;;;;;;;;5074689;27;45696;-76
2021/06/23 06:15:08;;;;;;;;;29.00;21.67;;;;;;;;5072644;27;45402;-77
2021/06/23 06:17:36;;;;;;;;;29.00;24.75;;;;;;;;5071852;27;45568;-77
2021/06/23 06:20:03;;;;;;;;;30.50;27.75;;;;;;;;5072861;28;47190;-77
2021/06/23 06:22:28;;;;;;;;;24.00;21.50;;;;;;;;5073334;27;45944;-76
2021/06/23 06:24:53;;;;;;;;;29.50;20.25;;;;;;;;5073662;27;45428;-78
2021/06/23 06:27:19;;;;;;;;;29.00;23.25;;;;;;;;5076813;27;45282;-76
2021/06/23 06:29:44;;;;;;;;;28.75;23.25;;;;;;;;5072826;27;47103;-77
2021/06/23 06:32:09;;;;;;;;;33.00;26.33;;;;;;;;5071077;27;45411;-77
2021/06/23 06:34:34;;;;;;;;;29.67;23.33;;;;;;;;5071790;27;45303;-82
2021/06/23 06:37:00;;;;;;;;;21.75;21.00;;;;;;;;5072819;27;45334;-77
2021/06/23 06:39:25;;;;;;;;;29.67;25.33;;;;;;;;5080185;27;45397;-77
2021/06/23 06:41:50;;;;;;;;;26.00;20.33;;;;;;;;5077245;27;45709;-77
2021/06/23 06:44:16;;;;;;;;;39.67;30.67;;;;;;;;5078823;27;45437;-76
2021/06/23 06:46:42;;;;;;;;;38.50;28.50;;;;;;;;5083332;27;45329;-77
2021/06/23 06:49:07;;;;;;;;;30.75;23.75;;;;;;;;5070905;27;45457;-76
2021/06/23 06:51:33;;;;;;;;;44.00;26.50;;;;;;;;5074003;27;45434;-77
2021/06/23 06:53:58;;;;;;;;;29.33;25.33;;;;;;;;5072734;28;45497;-77
2021/06/23 06:56:23;;;;;;;;;27.50;18.25;;;;;;;;5073240;27;45383;-76
2021/06/23 06:58:48;;;;;;;;;30.33;26.00;;;;;;;;5072730;27;48299;-77
2021/06/23 07:01:14;;;;;;;;;26.67;24.33;;;;;;;;5081122;27;45402;-78
2021/06/23 07:03:39;;;;;;;;;32.67;23.00;;;;;;;;5074434;27;45406;-77
2021/06/23 07:06:04;;;;;;;;;30.67;23.00;;;;;;;;5071444;27;45587;-77
2021/06/23 07:08:29;;;;;;;;;28.33;24.33;;;;;;;;5073444;27;47335;-77
2021/06/23 07:10:58;;;;;;;;;31.75;23.75;;;;;;;;5076883;27;45358;-78
2021/06/23 07:13:23;;;;;;;;;26.75;22.75;;;;;;;;5072657;27;45510;-81
2021/06/23 07:15:48;;;;;;;;;24.00;23.00;;;;;;;;5075339;27;45586;-77
2021/06/23 07:18:14;;;;;;;;;27.67;23.33;;;;;;;;5073619;27;45435;-78
2021/06/23 07:20:39;;;;;;;;;25.33;22.00;;;;;;;;5070814;27;45605;-76
2021/06/23 07:23:04;;;;;;;;;26.67;23.67;;;;;;;;5072087;27;45457;-76
2021/06/23 07:25:29;;;;;;;;;38.00;28.25;;;;;;;;5071027;27;45427;-82
2021/06/23 07:27:56;;;;;;;;;28.67;27.33;;;;;;;;5082162;27;46685;-77
2021/06/23 07:30:21;;;;;;;;;32.25;19.25;;;;;;;;5071676;27;45548;-76
2021/06/23 07:32:53;;;;;;;;;23.50;21.00;;;;;;;;5064720;27;45450;-77
2021/06/23 07:38:06;;;;;;;;;22.75;20.75;;;;;;;;5064702;27;45433;-76
2021/06/23 07:43:06;;;;;;;;;26.50;17.00;;;;;;;;5065711;28;46249;-77
2021/06/23 07:45:31;;;;;;;;;27.67;20.67;;;;;;;;5068121;27;45496;-78
2021/06/23 07:47:56;;;;;;;;;21.67;20.33;;;;;;;;5077002;27;45532;-76
2021/06/23 07:50:21;;;;;;;;;26.67;23.00;;;;;;;;5067003;27;45612;-75
2021/06/23 07:52:56;;;;;;;;;19.33;18.33;;;;;;;;5066170;27;45567;-77
2021/06/23 08:09:19;;;;;;;;;21.50;19.25;;;;;;;;5076116;27;45531;-84
2021/06/23 08:11:46;;;;;;;;;20.50;18.50;;;;;;;;5072566;27;45575;-85
2021/06/23 08:14:11;;;;;;;;;26.00;21.50;;;;;;;;5069380;27;45535;-84
2021/06/23 08:16:36;;;;;;;;;27.00;20.00;;;;;;;;5082442;27;45429;-83
2021/06/23 08:19:02;;;;;;;;;26.00;22.25;;;;;;;;5069509;27;45431;-85
2021/06/23 08:21:27;;;;;;;;;19.50;18.50;;;;;;;;5072514;27;45546;-84
2021/06/23 08:23:53;;;;;;;;;34.00;21.25;;;;;;;;5069679;27;48873;-84
2021/06/23 08:26:18;;;;;;;;;19.50;19.00;;;;;;;;5069993;27;45432;-83
2021/06/23 08:28:44;;;;;;;;;23.75;19.50;;;;;;;;5075562;27;46029;-83
2021/06/23 08:31:09;;;;;;;;;21.25;19.25;;;;;;;;5080493;27;45974;-85
2021/06/23 08:33:35;;;;;;;;;18.50;17.75;;;;;;;;5084108;27;45336;-84
2021/06/23 08:36:00;;;;;;;;;21.00;19.50;;;;;;;;5077493;27;45389;-85
2021/06/23 08:38:25;;;;;;;;;21.00;19.67;;;;;;;;5070973;27;46217;-86
2021/06/23 08:40:51;;;;;;;;;19.75;19.25;;;;;;;;5079857;27;45366;-86
2021/06/23 08:43:17;;;;;;;;;23.50;20.25;;;;;;;;5078920;27;45452;-84
2021/06/23 08:45:43;;;;;;;;;20.00;15.75;;;;;;;;5087786;27;45843;-83
2021/06/23 08:48:09;;;;;;;;;32.00;21.50;;;;;;;;5081683;27;45516;-83
2021/06/23 08:50:34;;;;;;;;;18.50;17.25;;;;;;;;5080834;27;45326;-68
2021/06/23 08:52:59;;;;;;;;;22.00;17.00;;;;;;;;5080963;27;45421;-68
2021/06/23 08:55:24;;;;;;;;;20.33;19.33;;;;;;;;5081082;27;45390;-68
2021/06/23 08:57:50;;;;;;;;;22.67;20.33;;;;;;;;5083846;27;46098;-68
2021/06/23 09:00:16;;;;;;;;;21.00;20.25;;;;;;;;5079593;27;46116;-69
2021/06/23 09:02:43;;;;;;;;;22.00;18.75;;;;;;;;5072151;27;45466;-68
2021/06/23 09:05:09;;;;;;;;;19.50;17.50;;;;;;;;5073955;27;45746;-68
2021/06/23 09:07:35;;;;;;;;;22.25;19.75;;;;;;;;5083794;27;46173;-69
2021/06/23 09:10:01;;;;;;;;;22.50;19.50;;;;;;;;5083432;27;45471;-68
2021/06/23 09:12:26;;;;;;;;;19.33;17.67;;;;;;;;5085155;27;45435;-68
2021/06/23 09:14:51;;;;;;;;;24.00;21.33;;;;;;;;5068993;27;45464;-68
2021/06/23 09:17:17;;;;;;;;;22.67;19.33;;;;;;;;5071408;27;46106;-69
2021/06/23 09:19:47;;;;;;;;;17.75;15.50;;;;;;;;5072321;27;46112;-69
2021/06/23 09:22:31;;;;;;;;;20.50;16.25;;;;;;;;5072966;27;45747;-67
2021/06/23 09:24:56;;;;;;;;;22.25;19.75;;;;;;;;5071653;27;45690;-69
2021/06/23 09:27:30;;;;;;;;;16.25;14.50;;;;;;;;5078939;27;45998;-69
2021/06/23 09:30:15;;;;;;;;;17.00;15.00;;;;;;;;5085272;27;45727;-70
2021/06/23 09:32:40;;;;;;;;;14.00;14.00;;;;;;;;5073497;27;45410;-71
2021/06/23 09:35:05;;;;;;;;;17.00;14.33;;;;;;;;5080701;27;45401;-71
2021/06/23 09:37:32;;;;;;;;;17.50;15.25;;;;;;;;5069582;27;46463;-71
2021/06/23 09:40:09;;;;;;;;;15.75;14.75;;;;;;;;5080792;27;45493;-69
2021/06/23 09:42:48;;;;;;;;;20.75;15.75;;;;;;;;5073841;27;45568;-69
2021/06/23 09:45:15;;;;;;;;;17.00;15.25;;;;;;;;5075571;27;45413;-70
2021/06/23 09:47:41;;;;;;;;;21.00;16.25;;;;;;;;5074584;27;45636;-68
2021/06/23 09:50:07;;;;;;;;;19.00;14.50;;;;;;;;5076570;27;45856;-68
2021/06/23 09:52:38;;;;;;;;;16.25;16.00;;;;;;;;5083124;27;45426;-68
2021/06/23 09:55:04;;;;;;;;;31.50;25.25;;;;;;;;5080768;27;45624;-69
2021/06/23 09:57:30;;;;;;;;;16.50;14.50;;;;;;;;5084344;27;47744;-68
2021/06/23 10:00:11;;;;;;;;;38.50;32.25;;;;;;;;5073116;27;45369;-76
2021/06/23 10:02:36;;;;;;;;;22.00;16.50;;;;;;;;5076747;27;46744;-76
2021/06/23 10:05:07;;;;;;;;;18.25;14.50;;;;;;;;5074531;27;45746;-76
2021/06/23 10:07:43;;;;;;;;;14.75;14.75;;;;;;;;5083557;27;45996;-76
2021/06/23 10:10:09;;;;;;;;;18.50;15.50;;;;;;;;5079387;27;45938;-76
2021/06/23 10:12:36;;;;;;;;;17.25;15.50;;;;;;;;5081072;27;45441;-77
2021/06/23 10:15:01;;;;;;;;;20.00;17.00;;;;;;;;5077712;27;45502;-75
2021/06/23 10:17:27;;;;;;;;;19.50;15.75;;;;;;;;5070602;27;46143;-74
2021/06/23 10:19:53;;;;;;;;;18.00;14.75;;;;;;;;5075083;27;45675;-75
2021/06/23 10:22:18;;;;;;;;;19.75;14.50;;;;;;;;5070770;27;45489;-74
2021/06/23 10:24:44;;;;;;;;;15.00;14.00;;;;;;;;5072695;27;45518;-75
2021/06/23 10:27:11;;;;;;;;;14.25;12.25;;;;;;;;5071829;27;45600;-76
2021/06/23 10:29:37;;;;;;;;;17.00;14.00;;;;;;;;5075727;27;45541;-78
2021/06/23 10:32:03;;;;;;;;;15.00;13.00;;;;;;;;5080474;27;45516;-77
2021/06/23 10:34:29;;;;;;;;;15.75;14.25;;;;;;;;5076994;27;45399;-77
2021/06/23 10:36:55;;;;;;;;;14.50;13.75;;;;;;;;5079547;27;46961;-77
2021/06/23 10:39:21;;;;;;;;;12.75;12.00;;;;;;;;5083353;27;46118;-76
2021/06/23 10:41:48;;;;;;;;;15.00;13.75;;;;;;;;5080245;27;45792;-76
2021/06/23 10:44:21;;;;;;;;;15.75;12.75;;;;;;;;5075061;27;45540;-77
2021/06/23 10:46:48;;;;;;;;;14.75;11.50;;;;;;;;5069645;27;46095;-76
2021/06/23 10:49:18;;;;;;;;;16.75;14.50;;;;;;;;5073838;27;45425;-77
2021/06/23 10:51:47;;;;;;;;;15.25;13.25;;;;;;;;5083671;27;45546;-76
2021/06/23 10:54:27;;;;;;;;;25.00;18.75;;;;;;;;5081320;27;45487;-77
2021/06/23 10:56:52;;;;;;;;;15.50;15.50;;;;;;;;5076498;27;45593;-77
2021/06/23 10:59:30;;;;;;;;;14.33;14.00;;;;;;;;5077906;27;45437;-78
2021/06/23 11:02:09;;;;;;;;;15.50;15.50;;;;;;;;5078695;27;45420;-78
2021/06/23 11:05:04;;;;;;;;;13.50;13.25;;;;;;;;5083000;27;45809;-78
2021/06/23 11:07:32;;;;;;;;;13.75;12.75;;;;;;;;5070370;27;48280;-78
2021/06/23 11:10:13;;;;;;;;;16.50;14.50;;;;;;;;5077572;27;45987;-77
2021/06/23 11:12:48;;;;;;;;;19.25;13.50;;;;;;;;5072128;27;45384;-77
2021/06/23 11:15:14;;;;;;;;;14.00;12.25;;;;;;;;5074516;27;45331;-78
2021/06/23 11:17:42;;;;;;;;;19.75;14.00;;;;;;;;5078171;27;46256;-78
2021/06/23 11:20:28;;;;;;;;;18.50;14.75;;;;;;;;5069585;27;45584;-78
2021/06/23 11:22:54;;;;;;;;;18.25;17.00;;;;;;;;5057721;27;45555;-78
2021/06/23 11:25:22;;;;;;;;;15.00;12.75;;;;;;;;5082281;27;45400;-77
2021/06/23 11:28:06;;;;;;;;;15.75;14.50;;;;;;;;5069285;27;46368;-77
2021/06/23 11:30:31;;;;;;;;;16.00;14.00;;;;;;;;5085405;27;45798;-79
2021/06/23 11:32:57;;;;;;;;;21.67;18.67;;;;;;;;5074683;27;45429;-78
2021/06/23 11:35:22;;;;;;;;;16.67;15.00;;;;;;;;5064102;27;45888;-76
2021/06/23 11:37:47;;;;;;;;;13.67;13.67;;;;;;;;5067458;27;45400;-78
2021/06/23 11:40:14;;;;;;;;;16.50;13.50;;;;;;;;5073571;27;45612;-77
2021/06/23 11:42:39;;;;;;;;;17.00;14.00;;;;;;;;5079363;27;45948;-79
2021/06/23 11:45:05;;;;;;;;;16.25;16.00;;;;;;;;5078882;27;45433;-77
2021/06/23 11:47:31;;;;;;;;;16.25;16.00;;;;;;;;5077497;27;45429;-76
2021/06/23 11:49:56;;;;;;;;;21.00;17.75;;;;;;;;5079437;27;45701;-78
2021/06/23 11:52:21;;;;;;;;;16.33;14.00;;;;;;;;5081557;27;45485;-78
2021/06/23 11:54:47;;;;;;;;;29.25;26.25;;;;;;;;5077289;27;45435;-79
2021/06/23 11:57:12;;;;;;;;;31.50;25.00;;;;;;;;5082442;27;45838;-78
2021/06/23 11:59:43;;;;;;;;;24.33;21.33;;;;;;;;5073160;27;45786;-77
2021/06/23 12:02:08;;;;;;;;;22.00;18.25;;;;;;;;5076509;27;45523;-76
2021/06/23 12:04:33;;;;;;;;;18.33;16.33;;;;;;;;5082383;27;46338;-77
2021/06/23 12:06:59;;;;;;;;;18.50;17.75;;;;;;;;5080122;27;48481;-77
2021/06/23 12:09:24;;;;;;;;;15.33;15.33;;;;;;;;5075779;27;45405;-76
2021/06/23 12:11:49;;;;;;;;;19.75;16.75;;;;;;;;5075769;27;45659;-81
2021/06/23 12:14:15;;;;;;;;;16.33;14.00;;;;;;;;5079262;27;45544;-80
2021/06/23 12:16:40;;;;;;;;;16.00;16.00;;;;;;;;5073150;27;45554;-76
2021/06/23 12:19:05;;;;;;;;;17.00;17.00;;;;;;;;5078394;27;45608;-79
2021/06/23 12:21:31;;;;;;;;;25.00;18.50;;;;;;;;5080594;27;45563;-79
2021/06/23 12:23:56;;;;;;;;;19.25;15.50;;;;;;;;5077206;27;45474;-76
2021/06/23 12:26:22;;;;;;;;;23.50;22.00;;;;;;;;5078712;27;46487;-76
2021/06/23 12:28:48;;;;;;;;;30.50;27.25;;;;;;;;5084679;27;45770;-78
2021/06/23 12:31:13;;;;;;;;;30.75;21.75;;;;;;;;5085397;27;45413;-77
2021/06/23 12:33:38;;;;;;;;;27.50;24.50;;;;;;;;5088201;27;45412;-79
2021/06/23 12:36:04;;;;;;;;;18.67;18.67;;;;;;;;5067014;27;45548;-79
2021/06/23 12:38:29;;;;;;;;;23.75;18.25;;;;;;;;5073793;27;45410;-76
2021/06/23 12:40:55;;;;;;;;;21.50;19.25;;;;;;;;5076531;27;45468;-78
2021/06/23 12:43:20;;;;;;;;;21.33;16.00;;;;;;;;5075124;27;45476;-76
2021/06/23 12:45:51;;;;;;;;;21.25;19.75;;;;;;;;5069376;27;45437;-76
2021/06/23 12:48:16;;;;;;;;;22.50;21.25;;;;;;;;5081479;27;45961;-76
2021/06/23 12:50:41;;;;;;;;;23.75;19.25;;;;;;;;5071732;27;45705;-77
2021/06/23 12:53:07;;;;;;;;;25.00;19.75;;;;;;;;5077771;27;45733;-76
2021/06/23 12:55:32;;;;;;;;;23.67;19.33;;;;;;;;5087114;27;45470;-76
2021/06/23 12:57:58;;;;;;;;;17.25;16.50;;;;;;;;5083164;27;46853;-77
2021/06/23 13:00:24;;;;;;;;;23.25;21.25;;;;;;;;5084125;27;46015;-77
2021/06/23 13:02:49;;;;;;;;;21.75;18.00;;;;;;;;5080021;27;45739;-76
2021/06/23 13:05:15;;;;;;;;;29.00;22.50;;;;;;;;5084358;27;47013;-76
2021/06/23 13:07:41;;;;;;;;;21.75;19.75;;;;;;;;5085598;27;45700;-77
2021/06/23 13:10:08;;;;;;;;;21.50;20.25;;;;;;;;5082522;27;45382;-77
2021/06/23 13:12:33;;;;;;;;;23.25;21.50;;;;;;;;5079973;27;45542;-78
2021/06/23 13:14:58;;;;;;;;;24.50;20.75;;;;;;;;5080674;27;46329;-78
2021/06/23 13:17:24;;;;;;;;;25.25;22.25;;;;;;;;5082119;27;45603;-76
2021/06/23 13:19:50;;;;;;;;;25.75;22.75;;;;;;;;5078625;27;45290;-76
2021/06/23 13:22:15;;;;;;;;;27.25;23.00;;;;;;;;5072360;27;46261;-77
2021/06/23 13:24:41;;;;;;;;;23.67;23.33;;;;;;;;5076690;27;46369;-77
2021/06/23 13:27:06;;;;;;;;;34.75;30.25;;;;;;;;5081019;27;45398;-79
2021/06/23 13:29:32;;;;;;;;;32.25;25.50;;;;;;;;5078881;27;45624;-80
2021/06/23 13:31:57;;;;;;;;;29.33;23.33;;;;;;;;5074861;27;45291;-76
2021/06/23 13:34:22;;;;;;;;;28.67;21.00;;;;;;;;5082027;27;45416;-75
2021/06/23 13:36:47;;;;;;;;;27.75;23.25;;;;;;;;5080752;27;45463;-77
2021/06/23 13:39:13;;;;;;;;;25.67;23.67;;;;;;;;5082446;27;45453;-77
2021/06/23 13:41:41;;;;;;;;;23.75;23.50;;;;;;;;5074786;27;45523;-76
2021/06/23 13:44:06;;;;;;;;;26.75;24.25;;;;;;;;5071084;27;47206;-76
2021/06/23 13:46:31;;;;;;;;;24.00;23.33;;;;;;;;5071216;27;46158;-77
2021/06/23 13:48:56;;;;;;;;;26.67;21.33;;;;;;;;5071857;27;46304;-78
2021/06/23 13:51:22;;;;;;;;;29.67;22.00;;;;;;;;5079060;27;45417;-76
2021/06/23 13:53:47;;;;;;;;;21.67;20.67;;;;;;;;5075588;27;47848;-76
2021/06/23 13:56:12;;;;;;;;;23.33;22.00;;;;;;;;5074996;27;46100;-76
2021/06/23 13:58:37;;;;;;;;;26.00;22.67;;;;;;;;5076005;27;45440;-76
2021/06/23 14:01:03;;;;;;;;;23.33;22.33;;;;;;;;5079035;27;45433;-77
2021/06/23 14:03:28;;;;;;;;;26.50;22.75;;;;;;;;5076436;27;45559;-75
2021/06/23 14:05:54;;;;;;;;;28.33;24.33;;;;;;;;5067740;27;45638;-78
2021/06/23 14:08:19;;;;;;;;;26.50;22.25;;;;;;;;5073001;27;45784;-76
2021/06/23 14:10:45;;;;;;;;;26.00;24.00;;;;;;;;5082696;27;45360;-78
2021/06/23 14:13:10;;;;;;;;;33.25;27.00;;;;;;;;5070952;27;45949;-76
2021/06/23 14:15:36;;;;;;;;;29.25;24.25;;;;;;;;5084396;27;45326;-76
2021/06/23 14:18:01;;;;;;;;;25.00;23.50;;;;;;;;5073165;27;45471;-76
2021/06/23 14:20:27;;;;;;;;;29.67;25.67;;;;;;;;5071990;28;45394;-76
2021/06/23 14:22:52;;;;;;;;;28.00;25.25;;;;;;;;5070951;27;45543;-77
2021/06/23 14:25:18;;;;;;;;;29.67;26.33;;;;;;;;5071493;27;45547;-75
2021/06/23 14:27:44;;;;;;;;;24.75;23.25;;;;;;;;5083469;27;45495;-76
2021/06/23 14:30:11;;;;;;;;;32.00;25.25;;;;;;;;5080424;27;45512;-77
2021/06/23 14:32:36;;;;;;;;;30.75;24.75;;;;;;;;5077265;27;45476;-76